createdAt,value
2018-09-21T00:02:00.727Z,6.85
2018-09-21T00:04:28.549Z,3.08
2018-09-21T00:06:56.338Z,7.47
2018-09-21T00:09:24.154Z,4.85
2018-09-21T00:11:51.962Z,4.40
2018-09-21T00:14:19.721Z,4.10
2018-09-21T00:16:47.552Z,7.87
2018-09-21T00:19:15.405Z,5.87
2018-09-21T00:21:43.237Z,3.50
2018-09-21T00:24:11.039Z,6.37
2018-09-21T00:26:38.833Z,4.37
2018-09-21T00:29:06.618Z,8.23
2018-09-21T00:31:34.416Z,8.58
2018-09-21T00:34:02.226Z,3.33
2018-09-21T00:36:30.058Z,6.00
2018-09-21T00:38:57.809Z,6.78
2018-09-21T00:41:25.626Z,6.15
2018-09-21T00:43:53.417Z,6.85
2018-09-21T00:46:21.228Z,6.58
2018-09-21T00:48:49.057Z,7.55
2018-09-21T00:51:16.858Z,5.10
2018-09-21T00:53:44.679Z,4.80
2018-09-21T00:56:12.552Z,4.47
2018-09-21T00:58:40.343Z,7.10
2018-09-21T01:01:08.108Z,2.75
2018-09-21T01:03:35.905Z,8.95
2018-09-21T01:06:03.710Z,3.50
2018-09-21T01:08:31.506Z,4.03
2018-09-21T01:10:59.299Z,5.75
2018-09-21T01:13:27.089Z,3.60
2018-09-21T01:15:54.885Z,5.62
2018-09-21T01:18:22.688Z,16.05
2018-09-21T01:20:50.494Z,6.58
2018-09-21T01:23:18.265Z,5.95
2018-09-21T01:25:46.122Z,8.78
2018-09-21T01:28:13.945Z,4.30
2018-09-21T01:30:41.860Z,2.72
2018-09-21T01:33:09.682Z,9.80
2018-09-21T01:35:37.561Z,7.85
2018-09-21T01:38:05.523Z,5.15
2018-09-21T01:40:33.317Z,4.92
2018-09-21T01:43:01.122Z,3.80
2018-09-21T01:45:28.965Z,2.85
2018-09-21T01:47:56.758Z,6.30
2018-09-21T01:50:24.598Z,5.33
2018-09-21T01:52:52.414Z,5.53
2018-09-21T01:55:20.276Z,5.45
2018-09-21T01:57:48.062Z,4.80
2018-09-21T02:00:15.881Z,5.40
2018-09-21T02:02:43.684Z,5.05
2018-09-21T02:05:11.496Z,7.30
2018-09-21T02:07:39.309Z,6.45
2018-09-21T02:10:07.168Z,5.87
2018-09-21T02:12:34.952Z,4.10
2018-09-21T02:15:02.781Z,7.53
2018-09-21T02:17:30.565Z,6.53
2018-09-21T02:19:58.388Z,3.55
2018-09-21T02:22:26.183Z,1.87
2018-09-21T02:24:53.955Z,7.28
2018-09-21T02:27:21.769Z,3.22
2018-09-21T02:29:49.597Z,6.10
2018-09-21T02:32:17.398Z,6.05
2018-09-21T02:34:45.132Z,4.22
2018-09-21T02:37:12.934Z,4.42
2018-09-21T02:39:40.806Z,5.67
2018-09-21T02:42:08.517Z,9.38
2018-09-21T02:44:36.223Z,7.12
2018-09-21T02:47:03.930Z,3.77
2018-09-21T02:49:31.692Z,3.77
2018-09-21T02:51:59.378Z,5.60
2018-09-21T02:54:27.268Z,8.38
2018-09-21T02:56:55.138Z,26.15
2018-09-21T02:59:22.904Z,5.55
2018-09-21T03:01:50.609Z,6.80
2018-09-21T03:04:18.342Z,6.58
2018-09-21T03:06:46.176Z,7.65
2018-09-21T03:09:13.946Z,8.63
2018-09-21T03:11:41.775Z,10.95
2018-09-21T03:14:09.593Z,6.97
2018-09-21T03:16:37.350Z,4.85
2018-09-21T03:19:05.766Z,9.05
2018-09-21T03:21:33.562Z,5.87
2018-09-21T03:24:01.256Z,12.25
2018-09-21T03:26:29.051Z,3.40
2018-09-21T03:28:56.920Z,7.00
2018-09-21T03:31:24.646Z,9.40
2018-09-21T03:33:52.423Z,7.00
2018-09-21T03:36:20.294Z,9.58
2018-09-21T03:38:47.981Z,12.60
2018-09-21T03:41:15.778Z,14.53
2018-09-21T03:43:43.604Z,5.95
2018-09-21T03:46:11.815Z,12.03
2018-09-21T03:48:39.737Z,9.50
2018-09-21T03:51:07.522Z,12.58
2018-09-21T03:53:35.331Z,5.60
2018-09-21T03:56:03.216Z,9.95
2018-09-21T03:58:31.038Z,12.00
2018-09-21T04:00:58.927Z,7.95
2018-09-21T04:03:26.732Z,13.08
2018-09-21T04:05:54.528Z,12.20
2018-09-21T04:08:22.340Z,16.23
2018-09-21T04:10:50.193Z,11.08
2018-09-21T04:13:18.001Z,6.72
2018-09-21T04:15:45.824Z,16.17
2018-09-21T04:18:13.626Z,9.38
2018-09-21T04:20:41.412Z,16.75
2018-09-21T04:23:09.244Z,9.35
2018-09-21T04:25:36.994Z,7.78
2018-09-21T04:28:04.763Z,9.78
2018-09-21T04:30:32.608Z,7.62
2018-09-21T04:33:00.489Z,7.17
2018-09-21T04:35:28.291Z,5.20
2018-09-21T04:37:56.117Z,5.80
2018-09-21T04:40:23.982Z,5.08
2018-09-21T04:42:51.807Z,8.58
2018-09-21T04:45:19.540Z,9.43
2018-09-21T04:47:47.368Z,12.28
2018-09-21T04:50:15.118Z,9.95
2018-09-21T04:52:42.907Z,6.05
2018-09-21T04:55:10.730Z,7.70
2018-09-21T04:57:38.562Z,7.10
2018-09-21T05:00:06.988Z,10.18
2018-09-21T05:02:34.847Z,4.80
2018-09-21T05:05:02.825Z,6.03
2018-09-21T05:07:30.594Z,5.87
2018-09-21T05:09:58.450Z,5.00
2018-09-21T05:12:26.272Z,6.80
2018-09-21T05:14:55.118Z,5.40
2018-09-21T05:17:22.959Z,5.47
2018-09-21T05:19:50.871Z,5.90
2018-09-21T05:22:18.694Z,15.53
2018-09-21T05:24:46.587Z,8.25
2018-09-21T05:27:14.447Z,7.33
2018-09-21T05:29:42.277Z,13.88
2018-09-21T05:32:10.142Z,6.05
2018-09-21T05:34:40.150Z,8.65
2018-09-21T05:37:07.904Z,10.28
2018-09-21T05:39:35.718Z,9.73
2018-09-21T05:42:03.590Z,26.37
2018-09-21T05:44:31.399Z,13.18
2018-09-21T05:46:59.266Z,10.55
2018-09-21T05:49:27.111Z,16.45
2018-09-21T05:51:54.924Z,14.65
2018-09-21T05:54:22.771Z,21.52
2018-09-21T05:56:50.686Z,15.63
2018-09-21T05:59:18.560Z,17.02
2018-09-21T06:01:46.385Z,17.05
2018-09-21T06:04:14.187Z,21.68
2018-09-21T06:06:42.085Z,21.68
2018-09-21T06:09:11.639Z,23.67
2018-09-21T06:11:39.862Z,23.22
2018-09-21T06:14:07.890Z,20.02
2018-09-21T06:16:35.676Z,37.73
2018-09-21T06:19:03.514Z,21.23
2018-09-21T06:21:31.336Z,17.65
2018-09-21T06:23:59.150Z,20.57
2018-09-21T06:26:26.959Z,19.20
2018-09-21T06:28:54.873Z,14.90
2018-09-21T06:31:22.704Z,14.03
2018-09-21T06:33:50.730Z,12.28
2018-09-21T06:36:19.001Z,18.75
2018-09-21T06:38:46.810Z,19.23
2018-09-21T06:41:14.736Z,14.13
2018-09-21T06:43:42.701Z,11.22
2018-09-21T06:46:10.562Z,11.63
2018-09-21T06:48:38.481Z,6.12
2018-09-21T06:51:06.349Z,12.10
2018-09-21T06:53:34.153Z,6.58
2018-09-21T06:56:01.940Z,10.50
2018-09-21T06:58:29.746Z,10.15
2018-09-21T07:00:57.631Z,8.00
2018-09-21T07:03:25.675Z,7.83
2018-09-21T07:05:53.684Z,5.60
2018-09-21T07:08:21.664Z,4.65
2018-09-21T07:10:49.726Z,9.38
2018-09-21T07:13:17.694Z,6.47
2018-09-21T07:15:45.686Z,7.12
2018-09-21T07:18:13.639Z,6.87
2018-09-21T07:20:41.650Z,6.22
2018-09-21T07:23:09.632Z,4.47
2018-09-21T07:25:37.665Z,6.08
2018-09-21T07:28:05.651Z,4.10
2018-09-21T07:30:33.936Z,5.90
2018-09-21T07:33:02.130Z,2.95
2018-09-21T07:35:30.101Z,4.53
2018-09-21T07:37:58.092Z,3.17
2018-09-21T07:40:26.105Z,6.97
2018-09-21T07:42:54.110Z,3.45
2018-09-21T07:45:22.048Z,3.12
2018-09-21T07:47:50.103Z,4.05
2018-09-21T07:50:18.081Z,4.05
2018-09-21T07:52:46.088Z,9.23
2018-09-21T07:55:15.082Z,4.22
2018-09-21T07:57:43.071Z,4.60
2018-09-21T08:00:11.055Z,4.67
2018-09-21T08:02:39.144Z,3.37
2018-09-21T08:08:04.952Z,4.60
2018-09-21T08:10:32.790Z,3.62
2018-09-21T08:13:01.221Z,6.08
2018-09-21T08:15:29.482Z,4.22
2018-09-21T08:17:57.353Z,3.15
2018-09-21T08:20:25.595Z,5.85
2018-09-21T08:22:53.402Z,1.98
2018-09-21T08:25:21.252Z,1.30
2018-09-21T08:27:49.025Z,1.85
2018-09-21T08:30:16.778Z,2.02
2018-09-21T08:32:44.554Z,4.20
2018-09-21T08:35:12.365Z,3.60
2018-09-21T08:37:40.155Z,2.85
2018-09-21T08:40:08.359Z,1.62
2018-09-21T08:42:36.254Z,1.60
2018-09-21T08:45:04.553Z,2.75
2018-09-21T08:47:32.412Z,3.83
2018-09-21T08:50:00.356Z,2.92
2018-09-21T08:52:28.338Z,1.35
2018-09-21T08:54:56.269Z,1.92
2018-09-21T08:57:24.084Z,5.55
2018-09-21T08:59:51.898Z,3.30
2018-09-21T09:02:19.730Z,3.10
2018-09-21T09:04:47.570Z,2.17
2018-09-21T09:07:15.434Z,2.50
2018-09-21T09:09:43.278Z,2.83
2018-09-21T09:12:11.110Z,11.50
2018-09-21T09:14:38.907Z,0.50
2018-09-21T09:17:06.697Z,0.98
2018-09-21T09:19:34.526Z,2.42
2018-09-21T09:22:02.395Z,4.20
2018-09-21T09:24:30.219Z,0.75
2018-09-21T09:26:58.025Z,2.75
2018-09-21T09:29:26.842Z,3.85
2018-09-21T09:31:54.640Z,1.67
2018-09-21T09:34:22.437Z,2.75
2018-09-21T09:36:50.330Z,2.67
2018-09-21T09:39:18.120Z,4.30
2018-09-21T09:41:45.941Z,2.00
2018-09-21T09:44:13.771Z,3.50
2018-09-21T09:46:41.599Z,3.47
2018-09-21T09:49:09.428Z,0.88
2018-09-21T09:51:37.262Z,1.32
2018-09-21T09:54:05.134Z,2.80
2018-09-21T09:56:33.986Z,2.50
2018-09-21T09:59:01.818Z,3.75
2018-09-21T10:01:29.650Z,6.08
2018-09-21T10:03:57.552Z,2.00
2018-09-21T10:06:25.323Z,4.55
2018-09-21T10:08:53.210Z,1.92
2018-09-21T10:11:26.141Z,1.82
2018-09-21T10:13:53.989Z,1.35
2018-09-21T10:16:21.831Z,4.03
2018-09-21T10:18:49.627Z,1.67
2018-09-21T10:21:17.441Z,2.12
2018-09-21T10:23:45.230Z,1.00
2018-09-21T10:26:13.027Z,2.62
2018-09-21T10:28:42.049Z,1.55
2018-09-21T10:31:09.748Z,1.90
2018-09-21T10:33:37.756Z,0.82
2018-09-21T10:36:05.491Z,1.30
2018-09-21T10:38:33.421Z,0.62
2018-09-21T10:41:01.244Z,1.32
2018-09-21T10:43:29.057Z,3.08
2018-09-21T10:45:56.905Z,2.02
2018-09-21T10:48:24.783Z,5.30
2018-09-21T10:50:52.710Z,0.60
2018-09-21T10:53:20.557Z,3.00
2018-09-21T10:55:48.482Z,0.57
2018-09-21T10:58:16.351Z,0.88
2018-09-21T11:00:44.263Z,2.95
2018-09-21T11:03:12.115Z,3.10
2018-09-21T11:05:39.930Z,2.02
2018-09-21T11:08:07.763Z,0.80
2018-09-21T11:10:35.569Z,1.77
2018-09-21T11:13:03.453Z,2.05
2018-09-21T11:15:31.221Z,1.30
2018-09-21T11:17:59.054Z,0.20
2018-09-21T11:20:26.975Z,1.57
2018-09-21T11:22:54.796Z,1.15
2018-09-21T11:25:22.650Z,1.20
2018-09-21T11:27:50.437Z,1.98
2018-09-21T11:30:18.314Z,4.83
2018-09-21T11:32:46.111Z,2.95
2018-09-21T11:35:14.743Z,2.08
2018-09-21T11:37:42.638Z,1.50
2018-09-21T11:40:10.575Z,1.45
2018-09-21T11:42:38.401Z,0.93
2018-09-21T11:45:06.677Z,1.55
2018-09-21T11:47:34.646Z,3.15
2018-09-21T11:50:02.344Z,0.50
2018-09-21T11:52:30.163Z,1.75
2018-09-21T11:54:58.004Z,1.22
2018-09-21T11:57:25.854Z,1.75
2018-09-21T11:59:53.692Z,2.62
2018-09-21T12:02:22.691Z,2.77
2018-09-21T12:04:50.666Z,2.67
2018-09-21T12:07:18.508Z,0.53
2018-09-21T12:09:46.353Z,2.35
2018-09-21T12:12:14.297Z,7.97
2018-09-21T12:14:42.154Z,2.15
2018-09-21T12:17:10.138Z,0.50
2018-09-21T12:19:38.332Z,3.72
2018-09-21T12:22:06.292Z,5.00
2018-09-21T12:24:34.143Z,2.52
2018-09-21T12:27:01.998Z,4.05
2018-09-21T12:29:29.882Z,4.47
2018-09-21T12:31:57.738Z,4.78
2018-09-21T12:34:25.567Z,3.62
2018-09-21T12:36:54.397Z,3.98
2018-09-21T12:39:22.221Z,4.25
2018-09-21T12:41:50.079Z,2.85
2018-09-21T12:44:18.092Z,3.52
2018-09-21T12:46:45.890Z,4.47
2018-09-21T12:49:13.730Z,2.58
2018-09-21T12:51:41.654Z,8.50
2018-09-21T12:54:09.479Z,2.52
2018-09-21T12:56:38.291Z,6.58
2018-09-21T12:59:06.229Z,7.83
2018-09-21T13:01:34.096Z,5.20
2018-09-21T13:04:01.884Z,9.20
2018-09-21T13:06:29.836Z,8.08
2018-09-21T13:08:57.575Z,6.40
2018-09-21T13:11:25.487Z,11.38
2018-09-21T13:13:54.322Z,11.70
2018-09-21T13:16:22.155Z,7.47
2018-09-21T13:18:49.963Z,4.22
2018-09-21T13:21:17.800Z,5.05
2018-09-21T13:23:45.612Z,10.70
2018-09-21T13:26:13.337Z,5.12
2018-09-21T13:28:41.170Z,3.15
2018-09-21T13:31:08.974Z,14.23
2018-09-21T13:33:36.824Z,7.83
2018-09-21T13:36:04.625Z,6.83
2018-09-21T13:38:32.421Z,4.60
2018-09-21T13:41:00.283Z,4.37
2018-09-21T13:43:28.086Z,4.72
2018-09-21T13:45:55.990Z,3.15
2018-09-21T13:48:23.849Z,6.35
2018-09-21T13:50:52.745Z,4.33
2018-09-21T13:53:20.612Z,5.00
2018-09-21T13:55:48.466Z,5.20
2018-09-21T13:58:16.300Z,9.48
2018-09-21T14:00:44.173Z,4.92
2018-09-21T14:03:11.980Z,5.87
2018-09-21T14:05:39.946Z,12.40
2018-09-21T14:08:07.689Z,12.07
2018-09-21T14:10:35.524Z,6.80
2018-09-21T14:13:03.363Z,12.98
2018-09-21T14:15:31.134Z,10.43
2018-09-21T14:17:59.098Z,12.47
2018-09-21T14:20:27.768Z,11.18
2018-09-21T14:22:57.054Z,9.60
2018-09-21T14:25:26.096Z,14.18
2018-09-21T14:27:54.858Z,11.50
2018-09-21T14:30:24.241Z,4.67
2018-09-21T14:32:53.071Z,10.65
2018-09-21T14:35:21.583Z,5.65
2018-09-21T14:37:49.685Z,6.83
2018-09-21T14:40:18.381Z,8.68
2018-09-21T14:42:47.127Z,10.23
2018-09-21T14:45:18.013Z,7.22
2018-09-21T14:47:46.931Z,4.80
2018-09-21T14:50:15.020Z,6.70
2018-09-21T14:52:42.834Z,10.82
2018-09-21T14:55:10.731Z,6.10
2018-09-21T14:57:38.602Z,4.30
2018-09-21T15:00:06.645Z,4.72
2018-09-21T15:02:34.519Z,5.95
2018-09-21T15:05:02.414Z,6.12
2018-09-21T15:07:30.274Z,5.83
2018-09-21T15:09:58.135Z,9.00
2018-09-21T15:12:26.015Z,4.87
2018-09-21T15:14:53.901Z,12.05
2018-09-21T15:17:21.809Z,7.05
2018-09-21T15:19:49.640Z,2.75
2018-09-21T15:22:17.559Z,11.63
2018-09-21T15:24:45.408Z,14.80
2018-09-21T15:27:13.315Z,11.48
2018-09-21T15:29:41.242Z,10.23
2018-09-21T15:32:09.101Z,7.23
2018-09-21T15:34:36.955Z,11.35
2018-09-21T15:37:04.786Z,5.87
2018-09-21T15:39:32.719Z,6.33
2018-09-21T15:42:00.559Z,10.63
2018-09-21T15:44:29.377Z,8.30
2018-09-21T15:46:57.212Z,10.98
2018-09-21T15:49:25.134Z,8.58
2018-09-21T15:51:53.060Z,20.92
2018-09-21T15:54:20.914Z,23.05
2018-09-21T15:56:48.780Z,13.98
2018-09-21T15:59:17.597Z,15.18
2018-09-21T16:01:45.413Z,4.42
2018-09-21T16:04:13.309Z,8.65
2018-09-21T16:06:41.125Z,9.45
2018-09-21T16:09:09.023Z,15.83
2018-09-21T16:11:37.593Z,15.43
2018-09-21T16:14:05.681Z,10.82
2018-09-21T16:16:33.514Z,12.28
2018-09-21T16:19:01.553Z,8.25
2018-09-21T16:21:29.411Z,17.87
2018-09-21T16:23:57.339Z,8.65
2018-09-21T16:26:26.173Z,7.17
2018-09-21T16:28:54.066Z,16.67
2018-09-21T16:31:21.933Z,11.53
2018-09-21T16:33:49.770Z,13.95
2018-09-21T16:36:18.652Z,9.15
2018-09-21T16:38:46.504Z,12.98
2018-09-21T16:41:14.380Z,14.03
2018-09-21T16:43:42.208Z,15.90
2018-09-21T16:46:10.066Z,6.05
2018-09-21T16:48:37.949Z,11.73
2018-09-21T16:51:05.867Z,7.08
2018-09-21T16:53:33.656Z,13.65
2018-09-21T16:56:01.535Z,22.25
2018-09-21T16:58:29.385Z,17.85
2018-09-21T17:00:57.268Z,18.50
2018-09-21T17:03:25.172Z,13.83
2018-09-21T17:05:52.983Z,13.15
2018-09-21T17:08:20.910Z,9.65
2018-09-21T17:10:48.732Z,11.20
2018-09-21T17:13:16.619Z,13.10
2018-09-21T17:15:44.485Z,13.08
2018-09-21T17:18:12.278Z,14.38
2018-09-21T17:20:40.113Z,19.73
2018-09-21T17:23:07.948Z,12.80
2018-09-21T17:25:35.801Z,18.62
2018-09-21T17:28:03.738Z,18.98
2018-09-21T17:30:31.656Z,10.88
2018-09-21T17:32:59.583Z,9.45
2018-09-21T17:35:27.455Z,13.65
2018-09-21T17:37:55.652Z,13.48
2018-09-21T17:40:23.522Z,9.80
2018-09-21T17:42:55.022Z,13.15
2018-09-21T17:45:22.850Z,14.45
2018-09-21T17:47:50.735Z,27.17
2018-09-21T17:50:18.697Z,12.85
2018-09-21T17:52:46.622Z,16.07
2018-09-21T17:55:14.413Z,15.18
2018-09-21T17:57:45.844Z,16.15
2018-09-21T18:00:13.717Z,15.80
2018-09-21T18:02:41.542Z,13.43
2018-09-21T18:05:09.454Z,6.05
2018-09-21T18:07:37.302Z,8.50
2018-09-21T18:10:05.250Z,12.00
2018-09-21T18:12:33.115Z,12.30
2018-09-21T18:15:00.942Z,5.97
2018-09-21T18:17:28.805Z,12.07
2018-09-21T18:19:56.638Z,11.35
2018-09-21T18:22:26.513Z,14.93
2018-09-21T18:24:54.430Z,11.68
2018-09-21T18:27:22.310Z,9.90
2018-09-21T18:29:50.126Z,7.70
2018-09-21T18:32:18.000Z,11.93
2018-09-21T18:34:46.071Z,8.23
2018-09-21T18:37:13.961Z,13.53
2018-09-21T18:39:41.837Z,8.55
2018-09-21T18:42:09.686Z,13.60
2018-09-21T18:44:37.578Z,5.62
2018-09-21T18:47:05.551Z,12.58
2018-09-21T18:49:33.402Z,14.47
2018-09-21T18:52:01.280Z,10.03
2018-09-21T18:54:29.135Z,12.98
2018-09-21T18:56:56.954Z,9.58
2018-09-21T18:59:25.784Z,9.55
2018-09-21T19:01:53.597Z,9.93
2018-09-21T19:04:22.472Z,12.15
2018-09-21T19:06:50.317Z,10.98
2018-09-21T19:09:18.115Z,9.98
2018-09-21T19:11:47.480Z,13.32
2018-09-21T19:14:15.361Z,10.53
2018-09-21T19:16:43.270Z,9.05
2018-09-21T19:19:11.128Z,11.35
2018-09-21T19:21:39.002Z,12.88
2018-09-21T19:24:06.908Z,8.83
2018-09-21T19:26:34.799Z,15.30
2018-09-21T19:29:02.626Z,11.70
2018-09-21T19:31:31.437Z,11.28
2018-09-21T19:33:59.287Z,8.18
2018-09-21T19:36:27.139Z,10.85
2018-09-21T19:38:54.976Z,11.40
2018-09-21T19:41:22.810Z,11.38
2018-09-21T19:43:50.732Z,15.83
2018-09-21T19:46:19.661Z,14.50
2018-09-21T19:48:47.461Z,9.75
2018-09-21T19:51:15.351Z,10.53
2018-09-21T19:53:43.184Z,12.30
2018-09-21T19:56:11.027Z,11.08
2018-09-21T19:58:38.875Z,9.53
2018-09-21T20:01:06.757Z,16.97
2018-09-21T20:03:34.610Z,9.75
2018-09-21T20:06:02.418Z,9.75
2018-09-21T20:08:30.308Z,7.60
2018-09-21T20:10:59.138Z,10.03
2018-09-21T20:13:26.997Z,15.23
2018-09-21T20:15:54.835Z,13.40
2018-09-21T20:18:22.845Z,9.60
2018-09-21T20:20:50.698Z,9.53
2018-09-21T20:23:18.486Z,7.90
2018-09-21T20:25:46.281Z,7.62
2018-09-21T20:28:14.097Z,10.82
2018-09-21T20:30:47.588Z,11.35
2018-09-21T20:33:21.001Z,14.78
2018-09-21T20:35:48.890Z,9.70
2018-09-21T20:38:16.689Z,13.88
2018-09-21T20:40:45.502Z,8.08
2018-09-21T20:43:13.307Z,8.63
2018-09-21T20:45:41.154Z,10.10
2018-09-21T20:48:09.000Z,14.85
2018-09-21T20:50:36.875Z,8.03
2018-09-21T20:53:04.723Z,12.63
2018-09-21T20:55:32.598Z,15.60
2018-09-21T20:58:00.406Z,5.87
2018-09-21T21:00:33.189Z,9.43
2018-09-21T21:03:01.030Z,13.88
2018-09-21T21:05:28.858Z,9.88
2018-09-21T21:07:56.726Z,11.55
2018-09-21T21:10:24.584Z,11.25
2018-09-21T21:12:56.053Z,6.65
2018-09-21T21:15:23.868Z,10.38
2018-09-21T21:17:51.802Z,13.70
2018-09-21T21:20:19.635Z,10.25
2018-09-21T21:22:47.439Z,14.78
2018-09-21T21:25:15.257Z,9.20
2018-09-21T21:27:43.093Z,13.38
2018-09-21T21:30:10.916Z,7.42
2018-09-21T21:32:40.748Z,14.07
2018-09-21T21:35:08.615Z,8.65
2018-09-21T21:37:36.465Z,9.43
2018-09-21T21:40:04.566Z,11.78
2018-09-21T21:42:32.452Z,10.70
2018-09-21T21:45:01.362Z,9.93
2018-09-21T21:47:29.230Z,6.25
2018-09-21T21:49:57.039Z,9.30
2018-09-21T21:52:24.908Z,9.70
2018-09-21T21:54:52.747Z,11.78
2018-09-21T21:57:20.551Z,9.45
2018-09-21T21:59:48.394Z,12.58
2018-09-21T22:02:16.263Z,11.20
2018-09-21T22:04:44.098Z,6.93
2018-09-21T22:07:13.946Z,8.87
2018-09-21T22:09:41.778Z,6.12
2018-09-21T22:12:15.071Z,10.78
2018-09-21T22:14:42.889Z,10.57
2018-09-21T22:17:10.729Z,9.20
2018-09-21T22:19:38.590Z,7.67
2018-09-21T22:22:07.384Z,10.43
2018-09-21T22:24:35.232Z,7.45
2018-09-21T22:27:03.090Z,9.85
2018-09-21T22:29:30.913Z,9.58
2018-09-21T22:31:58.756Z,8.88
2018-09-21T22:34:26.580Z,8.63
2018-09-21T22:36:54.394Z,6.60
2018-09-21T22:39:22.231Z,3.83
2018-09-21T22:41:50.070Z,7.25
2018-09-21T22:44:17.894Z,11.00
2018-09-21T22:46:45.736Z,8.73
2018-09-21T22:49:20.535Z,9.20
2018-09-21T22:51:48.367Z,11.07
2018-09-21T22:54:17.256Z,6.50
2018-09-21T22:56:45.087Z,8.90
2018-09-21T22:59:13.938Z,4.85
2018-09-21T23:01:41.775Z,9.97
2018-09-21T23:04:09.607Z,4.92
2018-09-21T23:06:37.433Z,10.05
2018-09-21T23:09:07.513Z,14.43
2018-09-21T23:11:35.349Z,7.95
2018-09-21T23:14:03.178Z,10.32
2018-09-21T23:16:31.093Z,5.83
2018-09-21T23:18:58.967Z,9.43
2018-09-21T23:21:26.828Z,6.57
2018-09-21T23:23:54.659Z,5.83
2018-09-21T23:26:22.515Z,4.60
2018-09-21T23:28:50.326Z,7.57
2018-09-21T23:31:18.186Z,5.20
2018-09-21T23:33:45.970Z,7.53
2018-09-21T23:36:14.860Z,6.17
2018-09-21T23:38:42.701Z,4.90
2018-09-21T23:41:10.505Z,5.23
2018-09-21T23:43:40.349Z,7.17
2018-09-21T23:46:08.174Z,4.47
2018-09-21T23:48:36.040Z,6.20
2018-09-21T23:51:03.836Z,6.37
2018-09-21T23:53:31.676Z,11.43
2018-09-21T23:55:59.502Z,8.77
2018-09-21T23:58:27.308Z,5.17
